Time;durP1;ratioP1;P1;durP2;ratioP2;P2;SDS_P1;SDS_P2;PMS_P1;PMS_P2;Temp;Humidity;BMP_temperature;BMP_pressure;BME280_temperature;BME280_humidity;BME280_pressure;Samples;Min_cycle;Max_cycle;Signal;HPM_P1;HPM_P2
2023/04/04 00:01:01;;;;;;;5.57;4.10;;;-0.70;1.00;;;;;;5014505;28;20909;-51
2023/04/04 00:03:27;;;;;;;5.70;4.20;;;-0.70;1.00;;;;;;5014466;28;20187;-54
2023/04/04 00:05:52;;;;;;;7.03;3.60;;;-0.70;1.00;;;;;;5014637;28;20207;-51
2023/04/04 00:08:18;;;;;;;8.13;3.80;;;-0.80;1.00;;;;;;5014545;28;20220;-52
2023/04/04 00:10:44;;;;;;;6.97;4.37;;;-0.80;1.00;;;;;;5014644;28;20180;-52
2023/04/04 00:13:10;;;;;;;8.27;3.67;;;-0.80;1.00;;;;;;5014296;28;20540;-51
2023/04/04 00:15:36;;;;;;;7.77;4.03;;;-0.80;1.00;;;;;;5014258;28;20981;-53
2023/04/04 00:18:02;;;;;;;9.87;3.60;;;-0.80;1.00;;;;;;5014097;28;20506;-52
2023/04/04 00:20:31;;;;;;;7.37;3.87;;;-0.80;1.00;;;;;;5014320;28;20177;-51
2023/04/04 00:22:57;;;;;;;8.03;3.93;;;-0.80;1.00;;;;;;5014352;28;20506;-52
2023/04/04 00:25:23;;;;;;;6.40;3.50;;;-0.80;1.00;;;;;;5014317;28;20427;-51
2023/04/04 00:27:49;;;;;;;8.93;4.00;;;-0.80;1.00;;;;;;5014282;28;20640;-52
2023/04/04 00:30:14;;;;;;;7.60;3.63;;;-0.80;1.00;;;;;;5014033;28;20771;-52
2023/04/04 00:32:40;;;;;;;9.17;3.90;;;-0.90;1.00;;;;;;5014313;28;20267;-52
2023/04/04 00:35:06;;;;;;;6.57;2.87;;;-0.90;1.00;;;;;;5013898;28;20180;-51
2023/04/04 00:37:32;;;;;;;6.67;3.47;;;-0.90;1.00;;;;;;5014126;28;20250;-52
2023/04/04 00:39:58;;;;;;;10.17;3.87;;;-0.90;1.00;;;;;;5013831;28;20645;-52
2023/04/04 00:42:24;;;;;;;7.23;3.80;;;-0.90;1.00;;;;;;5013911;28;20520;-51
2023/04/04 00:44:51;;;;;;;7.13;3.80;;;-1.00;1.00;;;;;;5013617;28;20255;-51
2023/04/04 00:47:17;;;;;;;7.60;3.60;;;-1.00;1.00;;;;;;5013919;28;20216;-52
2023/04/04 00:49:44;;;;;;;11.73;3.87;;;-1.00;1.00;;;;;;5013634;28;20489;-53
2023/04/04 00:52:10;;;;;;;6.63;3.70;;;-1.00;1.00;;;;;;5013796;28;20188;-51
2023/04/04 00:54:36;;;;;;;7.33;3.60;;;-1.00;1.00;;;;;;5013690;28;20472;-53
2023/04/04 00:57:05;;;;;;;5.47;3.37;;;-1.00;1.00;;;;;;5013686;28;20188;-52
2023/04/04 00:59:31;;;;;;;7.87;3.50;;;-1.00;1.00;;;;;;5013461;28;20579;-52
2023/04/04 01:01:57;;;;;;;6.23;3.93;;;-1.00;1.00;;;;;;5013689;28;20529;-51
2023/04/04 01:04:22;;;;;;;6.70;3.80;;;-1.00;1.00;;;;;;5013385;28;20510;-54
2023/04/04 01:06:49;;;;;;;8.23;3.80;;;-1.00;1.00;;;;;;5013178;28;20212;-52
2023/04/04 01:09:15;;;;;;;6.20;4.27;;;-1.00;1.00;;;;;;5013563;28;20200;-52
2023/04/04 01:11:42;;;;;;;6.40;3.57;;;-1.10;1.00;;;;;;5013480;28;20434;-53
2023/04/04 01:14:08;;;;;;;6.33;3.97;;;-1.10;1.00;;;;;;5013425;28;20274;-53
2023/04/04 01:16:35;;;;;;;6.03;3.40;;;-1.10;1.00;;;;;;5013265;28;20845;-51
2023/04/04 01:19:01;;;;;;;6.47;3.23;;;-1.10;1.00;;;;;;5013286;28;20196;-53
2023/04/04 01:21:28;;;;;;;7.50;3.70;;;-1.10;1.00;;;;;;5013344;28;20407;-51
2023/04/04 01:24:00;;;;;;;5.57;3.67;;;-1.10;1.00;;;;;;5013374;28;20430;-52
2023/04/04 01:26:30;;;;;;;5.90;3.03;;;-1.10;1.00;;;;;;5013202;28;20806;-52
2023/04/04 01:28:57;;;;;;;6.40;3.63;;;-1.10;1.00;;;;;;5012944;28;20998;-52
2023/04/04 01:31:37;;;;;;;13.30;3.60;;;-1.10;1.00;;;;;;5012984;28;20430;-51
2023/04/04 01:34:35;;;;;;;8.73;3.90;;;-1.10;1.00;;;;;;5014078;28;20818;-51
2023/04/04 01:37:36;;;;;;;7.13;3.77;;;-1.10;1.00;;;;;;5013570;28;20541;-51
2023/04/04 01:40:21;;;;;;;9.37;4.00;;;-1.10;1.00;;;;;;5015091;28;20432;-51
2023/04/04 01:42:47;;;;;;;9.37;3.83;;;-1.20;1.00;;;;;;5014681;28;20434;-51
2023/04/04 01:45:13;;;;;;;7.07;3.47;;;-1.20;1.00;;;;;;5014444;28;20475;-52
2023/04/04 01:47:40;;;;;;;9.50;3.60;;;-1.20;1.00;;;;;;5014604;28;20462;-51
2023/04/04 01:50:08;;;;;;;4.20;3.30;;;-1.20;1.00;;;;;;5014516;28;20188;-51
2023/04/04 01:52:34;;;;;;;5.27;3.83;;;-1.20;1.00;;;;;;5014435;28;20429;-51
2023/04/04 01:55:00;;;;;;;6.93;4.07;;;-1.20;1.00;;;;;;5014790;28;20427;-51
2023/04/04 01:57:26;;;;;;;5.33;3.40;;;-1.20;1.00;;;;;;5014783;28;20439;-51
2023/04/04 01:59:51;;;;;;;6.30;3.43;;;-1.20;1.00;;;;;;5014545;28;20180;-51
2023/04/04 02:02:17;;;;;;;4.77;3.17;;;-1.20;1.00;;;;;;5014224;28;20180;-51
2023/04/04 02:04:43;;;;;;;8.10;4.07;;;-1.20;1.00;;;;;;5014166;28;20190;-51
2023/04/04 02:07:08;;;;;;;8.43;3.07;;;-1.20;1.00;;;;;;5014390;28;20216;-51
2023/04/04 02:09:34;;;;;;;7.27;3.80;;;-1.30;1.00;;;;;;5014586;28;20419;-51
2023/04/04 02:12:00;;;;;;;4.33;3.27;;;-1.30;1.00;;;;;;5013938;28;20593;-52
2023/04/04 02:14:26;;;;;;;6.63;3.83;;;-1.30;1.00;;;;;;5014201;28;20184;-53
2023/04/04 02:16:51;;;;;;;7.53;3.43;;;-1.30;5.10;;;;;;5013857;28;20422;-51
2023/04/04 02:19:17;;;;;;;6.80;3.80;;;-1.30;6.50;;;;;;5014451;28;20556;-51
2023/04/04 02:21:43;;;;;;;4.50;3.07;;;-1.30;5.70;;;;;;5014237;28;20184;-51
2023/04/04 02:24:09;;;;;;;5.93;3.97;;;-1.30;7.80;;;;;;5014377;28;20260;-51
2023/04/04 02:26:34;;;;;;;9.03;3.60;;;-1.30;12.60;;;;;;5014279;28;20727;-51
2023/04/04 02:29:00;;;;;;;14.93;3.77;;;-1.30;12.60;;;;;;5014312;28;20457;-52
2023/04/04 02:31:26;;;;;;;6.53;3.50;;;-1.30;18.30;;;;;;5014083;28;20206;-51
2023/04/04 02:33:51;;;;;;;7.40;3.20;;;-1.30;31.80;;;;;;5014229;28;20180;-50
2023/04/04 02:36:17;;;;;;;5.40;3.50;;;-1.30;34.80;;;;;;5014124;28;20655;-51
2023/04/04 02:38:42;;;;;;;5.50;3.80;;;-1.30;38.00;;;;;;5014210;28;20518;-51
2023/04/04 02:41:08;;;;;;;5.10;3.20;;;-1.30;37.60;;;;;;5013782;28;20181;-51
2023/04/04 02:43:33;;;;;;;11.37;3.20;;;-1.30;37.40;;;;;;5014203;28;20271;-51
2023/04/04 02:45:59;;;;;;;5.10;3.33;;;-1.30;37.20;;;;;;5013334;28;20239;-51
2023/04/04 02:48:26;;;;;;;5.40;3.30;;;-1.30;39.60;;;;;;5013725;28;20230;-51
2023/04/04 02:50:51;;;;;;;8.27;3.50;;;-1.30;47.20;;;;;;5013700;28;20192;-51
2023/04/04 02:53:17;;;;;;;4.40;2.83;;;-1.30;40.60;;;;;;5013810;28;20427;-51
2023/04/04 02:55:42;;;;;;;7.63;3.77;;;-1.30;26.90;;;;;;5013858;28;20177;-51
2023/04/04 02:58:08;;;;;;;5.67;2.83;;;-1.30;34.40;;;;;;5013434;28;20266;-51
2023/04/04 03:00:34;;;;;;;6.90;4.30;;;-1.30;32.30;;;;;;5013902;28;20183;-51
2023/04/04 03:02:59;;;;;;;7.60;3.30;;;-1.30;37.20;;;;;;5013625;28;20184;-51
2023/04/04 03:05:26;;;;;;;12.50;3.40;;;-1.30;46.30;;;;;;5013898;28;20239;-51
2023/04/04 03:07:56;;;;;;;8.00;4.13;;;-1.30;50.10;;;;;;5013424;28;20223;-51
2023/04/04 03:10:26;;;;;;;7.80;4.20;;;-1.30;66.60;;;;;;5013770;28;20411;-51
2023/04/04 03:12:52;;;;;;;8.13;3.90;;;-1.30;77.70;;;;;;5013442;28;20403;-53
2023/04/04 03:15:18;;;;;;;7.03;3.83;;;-1.30;97.40;;;;;;5013454;28;20739;-51
2023/04/04 03:17:44;;;;;;;7.50;4.00;;;-1.30;99.90;;;;;;5013587;28;20219;-51
2023/04/04 03:20:13;;;;;;;6.83;3.80;;;-1.30;99.90;;;;;;5013484;28;20930;-51
2023/04/04 03:22:40;;;;;;;6.37;3.70;;;-1.30;99.90;;;;;;5013318;28;20653;-51
2023/04/04 03:25:06;;;;;;;7.13;3.00;;;-1.30;99.90;;;;;;5013517;28;20415;-51
2023/04/04 03:27:31;;;;;;;6.77;3.87;;;-1.30;99.90;;;;;;5013706;28;20469;-51
2023/04/04 03:29:58;;;;;;;6.60;3.63;;;-1.30;99.90;;;;;;5017113;28;20717;-51
2023/04/04 03:32:24;;;;;;;6.73;3.90;;;-1.30;99.90;;;;;;5017366;28;20269;-54
2023/04/04 03:34:50;;;;;;;4.77;3.30;;;-1.20;99.90;;;;;;5017254;28;20941;-51
2023/04/04 03:37:16;;;;;;;8.60;3.93;;;-1.20;99.90;;;;;;5017441;28;20484;-52
2023/04/04 03:39:42;;;;;;;8.87;4.23;;;-1.20;99.90;;;;;;5017275;28;20426;-51
2023/04/04 03:42:08;;;;;;;7.53;4.00;;;-1.20;99.90;;;;;;5016773;28;20774;-51
2023/04/04 03:44:33;;;;;;;10.10;3.80;;;-1.20;99.90;;;;;;5017014;28;20232;-51
2023/04/04 03:46:59;;;;;;;8.47;3.30;;;-1.20;99.90;;;;;;5017281;28;20742;-51
2023/04/04 03:49:24;;;;;;;9.90;4.20;;;-1.20;99.90;;;;;;5016934;28;20184;-52
2023/04/04 03:51:50;;;;;;;5.67;3.70;;;-1.20;99.90;;;;;;5017225;28;20960;-51
2023/04/04 03:54:16;;;;;;;8.00;3.70;;;-1.20;99.90;;;;;;5016877;28;20516;-51
2023/04/04 03:56:42;;;;;;;6.47;3.60;;;-1.20;99.90;;;;;;5016867;28;20184;-51
2023/04/04 03:59:08;;;;;;;8.73;4.37;;;-1.10;99.90;;;;;;5017001;28;20461;-52
2023/04/04 04:01:34;;;;;;;9.33;4.00;;;-1.10;99.90;;;;;;5016748;28;20425;-51
2023/04/04 04:04:02;;;;;;;6.70;3.50;;;-1.10;99.90;;;;;;5016829;28;20188;-52
2023/04/04 04:06:28;;;;;;;7.00;3.57;;;-1.10;99.90;;;;;;5016250;28;20210;-51
2023/04/04 04:08:55;;;;;;;5.70;3.77;;;-1.10;99.90;;;;;;5016907;28;20531;-51
2023/04/04 04:11:21;;;;;;;8.27;4.00;;;-1.10;99.90;;;;;;5016696;28;20689;-52
2023/04/04 04:13:46;;;;;;;5.33;3.90;;;-1.00;99.90;;;;;;5016754;28;20423;-52
2023/04/04 04:16:12;;;;;;;7.73;4.30;;;-1.00;99.90;;;;;;5016575;28;20633;-51
2023/04/04 04:18:38;;;;;;;9.37;3.67;;;-1.00;99.90;;;;;;5016406;28;20176;-51
2023/04/04 04:21:03;;;;;;;3.90;3.20;;;-1.00;99.90;;;;;;5016474;28;20188;-51
2023/04/04 04:23:30;;;;;;;11.83;4.50;;;-1.00;99.90;;;;;;5016291;28;20702;-51
2023/04/04 04:25:55;;;;;;;4.50;3.57;;;-1.10;99.90;;;;;;5016298;28;20518;-51
2023/04/04 04:28:23;;;;;;;6.77;3.60;;;-1.00;99.90;;;;;;5015873;28;20465;-51
2023/04/04 04:30:50;;;;;;;6.77;4.03;;;-1.10;99.90;;;;;;5016039;28;20581;-51
2023/04/04 04:33:15;;;;;;;7.17;3.97;;;-1.00;99.90;;;;;;5016364;28;20417;-51
2023/04/04 04:35:41;;;;;;;9.13;3.57;;;-1.00;99.90;;;;;;5016034;28;20415;-51
2023/04/04 04:38:07;;;;;;;7.30;3.63;;;-1.00;99.90;;;;;;5016179;28;20194;-51
2023/04/04 04:40:33;;;;;;;4.40;3.40;;;-1.00;99.90;;;;;;5015358;28;20180;-52
2023/04/04 04:42:58;;;;;;;9.43;3.63;;;-1.00;99.90;;;;;;5016510;28;20238;-50
2023/04/04 04:45:24;;;;;;;6.37;3.87;;;-1.00;99.90;;;;;;5015688;28;20474;-51
2023/04/04 04:47:50;;;;;;;10.57;4.10;;;-1.00;99.90;;;;;;5016159;28;20226;-50
2023/04/04 04:50:16;;;;;;;7.90;4.00;;;-1.00;99.90;;;;;;5015784;28;20187;-50
2023/04/04 04:52:42;;;;;;;5.37;3.03;;;-0.90;99.90;;;;;;5015987;28;20195;-50
2023/04/04 04:55:09;;;;;;;7.17;3.77;;;-0.90;99.90;;;;;;5015698;28;20407;-50
2023/04/04 04:57:35;;;;;;;10.10;3.70;;;-0.90;99.90;;;;;;5015940;28;20506;-53
2023/04/04 05:00:01;;;;;;;5.83;3.40;;;-0.90;99.90;;;;;;5015958;28;20427;-51
2023/04/04 05:02:28;;;;;;;5.07;3.53;;;-0.90;99.90;;;;;;5015558;28;20415;-51
2023/04/04 05:04:53;;;;;;;9.43;3.70;;;-0.90;99.90;;;;;;5015519;28;20765;-54
2023/04/04 05:07:19;;;;;;;9.10;4.30;;;-0.90;99.90;;;;;;5015338;28;20218;-51
2023/04/04 05:09:44;;;;;;;6.50;4.00;;;-0.80;99.90;;;;;;5015294;28;20187;-51
2023/04/04 05:12:10;;;;;;;7.80;4.13;;;-0.80;99.90;;;;;;5015585;28;20219;-51
2023/04/04 05:14:36;;;;;;;7.83;3.33;;;-0.80;99.90;;;;;;5015503;28;20207;-51
2023/04/04 05:17:02;;;;;;;9.07;3.83;;;-0.70;99.90;;;;;;5015556;28;20287;-51
2023/04/04 05:19:28;;;;;;;8.50;4.00;;;-0.70;99.90;;;;;;5015559;28;20419;-51
2023/04/04 05:21:53;;;;;;;7.20;4.27;;;-0.70;99.90;;;;;;5015481;28;20192;-51
2023/04/04 05:24:19;;;;;;;7.60;3.90;;;-0.60;99.90;;;;;;5015109;28;20492;-52
2023/04/04 05:26:46;;;;;;;6.47;3.97;;;-0.60;99.90;;;;;;5015164;28;20218;-51
2023/04/04 05:29:11;;;;;;;13.97;4.40;;;-0.50;99.90;;;;;;5014761;28;20730;-52
2023/04/04 05:31:37;;;;;;;11.43;3.77;;;-0.40;99.90;;;;;;5015209;28;20467;-52
2023/04/04 05:34:07;;;;;;;9.47;4.10;;;-0.40;99.90;;;;;;5015090;28;20314;-51
2023/04/04 05:36:36;;;;;;;9.47;4.10;;;-0.40;99.90;;;;;;5015287;28;20219;-51
2023/04/04 05:39:05;;;;;;;7.77;4.40;;;-0.30;99.90;;;;;;5014619;28;20926;-52
2023/04/04 05:41:32;;;;;;;8.07;4.30;;;-0.20;99.90;;;;;;5014892;28;20506;-51
2023/04/04 05:43:58;;;;;;;8.80;4.83;;;-0.20;99.90;;;;;;5014681;28;20427;-51
2023/04/04 05:46:23;;;;;;;6.73;4.43;;;-0.10;99.90;;;;;;5014842;28;20408;-54
2023/04/04 05:48:50;;;;;;;12.80;4.20;;;0.00;96.30;;;;;;5014801;28;20238;-52
2023/04/04 05:51:17;;;;;;;12.40;4.63;;;0.00;93.40;;;;;;5014521;28;20443;-52
2023/04/04 05:53:44;;;;;;;8.83;5.13;;;0.10;88.60;;;;;;5014056;28;20183;-52
2023/04/04 05:56:10;;;;;;;6.70;4.90;;;0.20;89.40;;;;;;5014777;28;20753;-52
2023/04/04 05:58:36;;;;;;;8.17;4.60;;;0.20;82.20;;;;;;5014779;28;20431;-51
2023/04/04 06:01:07;;;;;;;6.20;4.10;;;0.30;77.70;;;;;;5014437;28;20419;-52
2023/04/04 06:03:33;;;;;;;13.57;5.83;;;0.50;67.10;;;;;;5014575;28;20443;-50
2023/04/04 06:05:59;;;;;;;8.63;4.57;;;0.60;52.00;;;;;;5014532;28;20841;-50
2023/04/04 06:08:24;;;;;;;7.83;5.10;;;0.70;24.60;;;;;;5014726;28;20295;-52
2023/04/04 06:10:50;;;;;;;12.90;4.90;;;0.80;15.50;;;;;;5014297;28;20529;-53
2023/04/04 06:13:15;;;;;;;6.67;3.90;;;0.90;6.20;;;;;;5014232;28;20259;-52
2023/04/04 06:15:41;;;;;;;7.20;4.07;;;1.20;5.00;;;;;;5014599;28;20187;-52
2023/04/04 06:18:07;;;;;;;8.37;4.70;;;1.40;1.00;;;;;;5014074;28;20184;-51
2023/04/04 06:20:32;;;;;;;9.97;4.80;;;1.80;1.00;;;;;;5014053;28;20221;-51
2023/04/04 06:23:00;;;;;;;4.87;3.73;;;2.10;1.00;;;;;;5012653;28;20225;-52
2023/04/04 06:25:26;;;;;;;5.47;3.40;;;2.30;1.00;;;;;;5014207;28;20212;-51
2023/04/04 06:27:52;;;;;;;8.60;3.50;;;2.50;1.00;;;;;;5013873;28;20492;-52
2023/04/04 06:30:17;;;;;;;10.30;3.90;;;2.80;1.00;;;;;;5013983;28;20184;-51
2023/04/04 06:32:43;;;;;;;4.40;3.27;;;3.00;1.00;;;;;;5013755;28;20192;-55
2023/04/04 06:35:09;;;;;;;8.63;3.83;;;3.30;1.00;;;;;;5014314;28;20268;-51
2023/04/04 06:37:35;;;;;;;6.93;3.70;;;3.60;1.00;;;;;;5013847;28;21006;-52
2023/04/04 06:40:00;;;;;;;7.80;3.50;;;3.90;1.00;;;;;;5014139;28;20269;-51
2023/04/04 06:42:27;;;;;;;8.70;3.97;;;4.20;1.00;;;;;;5013827;28;20177;-52
2023/04/04 06:44:52;;;;;;;8.63;4.37;;;4.50;1.00;;;;;;5013960;28;20328;-52
2023/04/04 06:47:18;;;;;;;11.90;4.27;;;4.70;1.00;;;;;;5013627;28;20561;-51
2023/04/04 06:49:43;;;;;;;7.83;3.77;;;5.00;1.00;;;;;;5014059;28;20198;-51
2023/04/04 06:52:09;;;;;;;7.80;3.70;;;5.30;1.00;;;;;;5013698;28;20187;-51
2023/04/04 06:54:35;;;;;;;10.77;3.83;;;5.40;1.00;;;;;;5014308;28;20195;-51
2023/04/04 06:57:00;;;;;;;9.27;3.43;;;5.60;1.00;;;;;;5013905;28;20194;-51
2023/04/04 06:59:26;;;;;;;14.50;3.83;;;5.80;1.00;;;;;;5013836;28;20250;-51
2023/04/04 07:01:52;;;;;;;5.20;3.17;;;5.90;1.00;;;;;;5013731;28;20192;-52
2023/04/04 07:04:18;;;;;;;5.00;3.33;;;6.10;1.00;;;;;;5016409;28;20425;-51
2023/04/04 07:06:44;;;;;;;7.53;3.80;;;6.30;1.00;;;;;;5017752;28;20215;-51
2023/04/04 07:09:11;;;;;;;8.37;3.40;;;6.60;1.00;;;;;;5017909;28;20787;-50
2023/04/04 07:11:37;;;;;;;4.30;2.77;;;6.80;1.00;;;;;;5016327;28;20187;-50
2023/04/04 07:14:03;;;;;;;11.63;2.40;;;7.00;1.00;;;;;;5017833;28;20494;-51
2023/04/04 07:16:28;;;;;;;5.03;2.57;;;7.10;1.00;;;;;;5017656;28;20273;-50
2023/04/04 07:18:54;;;;;;;5.63;3.10;;;7.40;1.00;;;;;;5017662;28;20186;-51
2023/04/04 07:21:20;;;;;;;5.60;2.00;;;7.70;1.00;;;;;;5017879;28;20265;-50
2023/04/04 07:23:45;;;;;;;6.10;3.17;;;7.80;1.00;;;;;;5018007;28;20195;-50
2023/04/04 07:26:11;;;;;;;4.80;2.97;;;7.80;1.00;;;;;;5017342;28;20546;-51
2023/04/04 07:28:37;;;;;;;6.93;3.30;;;8.00;1.00;;;;;;5017149;28;20229;-51
2023/04/04 07:31:02;;;;;;;6.50;3.03;;;8.10;1.00;;;;;;5017424;28;20186;-51
2023/04/04 07:33:28;;;;;;;6.17;2.47;;;8.30;1.00;;;;;;5017177;28;20185;-50
2023/04/04 07:35:54;;;;;;;4.03;2.13;;;8.70;1.00;;;;;;5017405;28;20178;-51
2023/04/04 07:38:19;;;;;;;7.40;2.60;;;9.10;1.00;;;;;;5017396;28;20496;-52
2023/04/04 07:40:47;;;;;;;5.03;2.93;;;9.30;1.00;;;;;;5016380;28;20274;-54
2023/04/04 07:43:12;;;;;;;4.80;2.20;;;9.50;1.00;;;;;;5013374;28;20698;-51
2023/04/04 07:45:38;;;;;;;5.30;2.77;;;9.70;1.00;;;;;;5016716;28;20461;-50
2023/04/04 07:48:04;;;;;;;11.83;2.30;;;9.70;1.00;;;;;;5016921;28;20261;-52
2023/04/04 07:50:30;;;;;;;4.60;2.30;;;9.90;1.00;;;;;;5017338;28;20220;-52
2023/04/04 07:52:57;;;;;;;6.40;2.37;;;10.00;1.00;;;;;;5016848;28;20186;-54
2023/04/04 07:55:26;;;;;;;4.10;1.97;;;10.20;1.00;;;;;;5017209;28;20197;-51
2023/04/04 07:57:52;;;;;;;9.63;2.13;;;10.20;1.00;;;;;;5016517;28;20452;-51
2023/04/04 08:00:20;;;;;;;5.90;2.33;;;10.00;1.00;;;;;;5016747;28;20453;-52
2023/04/04 08:02:51;;;;;;;3.57;2.13;;;10.10;1.00;;;;;;5016671;28;20428;-52
2023/04/04 08:05:16;;;;;;;5.80;1.93;;;10.50;1.00;;;;;;5016963;28;20460;-51
2023/04/04 08:07:42;;;;;;;1.90;1.30;;;10.70;1.00;;;;;;5016645;28;20457;-52
2023/04/04 08:10:08;;;;;;;3.87;1.90;;;10.80;1.00;;;;;;5016741;28;20546;-52
2023/04/04 08:12:34;;;;;;;11.90;1.93;;;11.00;1.00;;;;;;5016389;28;20554;-52
2023/04/04 08:15:00;;;;;;;4.23;1.90;;;11.10;1.00;;;;;;5014166;28;20480;-55
2023/04/04 08:17:27;;;;;;;4.40;2.17;;;11.40;1.00;;;;;;5014252;28;20190;-54
2023/04/04 08:19:52;;;;;;;3.60;1.90;;;11.60;1.00;;;;;;5014340;28;20460;-53
2023/04/04 08:22:19;;;;;;;4.60;2.20;;;11.60;1.00;;;;;;5014027;28;20449;-54
2023/04/04 08:24:45;;;;;;;4.37;2.23;;;11.60;1.00;;;;;;5013880;28;20688;-53
2023/04/04 08:27:11;;;;;;;3.53;2.63;;;11.90;1.00;;;;;;5012381;28;20511;-52
2023/04/04 08:29:36;;;;;;;8.53;2.30;;;12.40;1.00;;;;;;5013654;28;20418;-54
2023/04/04 08:32:02;;;;;;;10.33;2.03;;;12.50;1.00;;;;;;5014010;28;20651;-55
2023/04/04 08:34:28;;;;;;;8.13;2.40;;;12.30;1.00;;;;;;5013782;28;20274;-54
2023/04/04 08:36:53;;;;;;;6.70;2.60;;;12.10;1.00;;;;;;5014133;28;20202;-54
2023/04/04 08:39:19;;;;;;;5.23;2.33;;;12.10;1.00;;;;;;5013534;28;20179;-54
2023/04/04 08:41:45;;;;;;;4.47;2.10;;;12.30;1.00;;;;;;5014264;28;20183;-53
2023/04/04 08:44:21;;;;;;;4.20;2.53;;;12.40;1.00;;;;;;5013793;28;20265;-54
2023/04/04 08:46:48;;;;;;;5.35;2.30;;;12.50;1.00;;;;;;5013022;28;20442;-56
2023/04/04 08:49:17;;;;;;;7.53;2.73;;;12.50;1.00;;;;;;5013722;28;20357;-55
2023/04/04 08:51:45;;;;;;;5.47;2.30;;;12.70;1.00;;;;;;5013186;28;20426;-54
2023/04/04 08:54:12;;;;;;;5.57;2.93;;;12.90;1.00;;;;;;5013128;28;20932;-56
2023/04/04 08:56:37;;;;;;;4.83;2.40;;;12.90;1.00;;;;;;5013292;28;20944;-53
2023/04/04 08:59:03;;;;;;;6.03;2.60;;;12.80;1.00;;;;;;5013194;28;20422;-53
2023/04/04 09:01:29;;;;;;;6.70;2.50;;;12.80;1.00;;;;;;5013052;28;20898;-55
2023/04/04 09:03:59;;;;;;;2.77;2.53;;;12.80;1.00;;;;;;5013013;28;20625;-54
2023/04/04 09:06:25;;;;;;;4.80;2.40;;;12.80;1.00;;;;;;5012950;28;20422;-57
2023/04/04 09:08:52;;;;;;;5.60;2.77;;;12.50;1.00;;;;;;5012919;28;20485;-54
2023/04/04 09:11:21;;;;;;;4.80;2.60;;;12.40;1.00;;;;;;5013067;28;20414;-55
2023/04/04 09:13:49;;;;;;;5.93;3.00;;;12.20;1.00;;;;;;5012781;28;20433;-55
2023/04/04 09:16:16;;;;;;;7.13;3.30;;;11.90;1.00;;;;;;5012795;28;20476;-53
2023/04/04 09:18:41;;;;;;;5.70;2.70;;;11.90;1.00;;;;;;5013327;28;20480;-54
2023/04/04 09:21:11;;;;;;;7.70;2.83;;;11.90;1.00;;;;;;5013122;28;20821;-54
2023/04/04 09:23:37;;;;;;;9.80;2.63;;;12.10;1.00;;;;;;5012970;28;20190;-53
2023/04/04 09:26:03;;;;;;;5.60;2.60;;;12.00;1.00;;;;;;5012705;28;20464;-57
2023/04/04 09:28:29;;;;;;;5.63;2.47;;;11.90;1.00;;;;;;5012917;28;20203;-55
2023/04/04 09:30:55;;;;;;;3.60;2.13;;;11.90;1.00;;;;;;5012864;28;20533;-54
2023/04/04 09:33:22;;;;;;;4.23;2.30;;;11.70;1.00;;;;;;5012926;28;20505;-54
2023/04/04 09:35:53;;;;;;;3.30;2.20;;;11.50;1.00;;;;;;5013026;28;20206;-54
2023/04/04 09:38:30;;;;;;;6.00;2.70;;;11.20;1.00;;;;;;5012629;28;20877;-54
2023/04/04 09:40:56;;;;;;;4.03;2.20;;;11.10;1.00;;;;;;5012727;28;20857;-55
2023/04/04 09:43:25;;;;;;;6.23;2.30;;;10.90;1.00;;;;;;5012896;28;20521;-54
2023/04/04 09:45:53;;;;;;;4.70;2.37;;;10.70;1.00;;;;;;5012349;28;21006;-52
2023/04/04 09:48:31;;;;;;;4.13;2.37;;;10.40;1.00;;;;;;5012726;28;20520;-52
2023/04/04 09:50:57;;;;;;;4.93;2.30;;;10.00;1.00;;;;;;5012785;28;20436;-56
2023/04/04 09:53:23;;;;;;;6.03;2.50;;;9.80;1.00;;;;;;5012428;28;20516;-54
2023/04/04 09:55:51;;;;;;;3.60;2.33;;;9.90;1.00;;;;;;5012452;28;20513;-54
2023/04/04 09:58:22;;;;;;;4.40;2.30;;;10.20;1.00;;;;;;5012267;28;20780;-55
2023/04/04 10:00:50;;;;;;;4.50;2.70;;;10.40;1.00;;;;;;5012217;28;20732;-53
2023/04/04 10:03:20;;;;;;;7.00;2.20;;;10.40;1.00;;;;;;5012306;28;20414;-53
2023/04/04 10:05:46;;;;;;;6.50;2.40;;;10.10;1.00;;;;;;5012553;28;20513;-54
2023/04/04 10:08:17;;;;;;;3.80;1.70;;;10.30;1.00;;;;;;5012140;28;21027;-54
2023/04/04 10:10:48;;;;;;;4.70;2.37;;;10.30;1.00;;;;;;5012332;28;20765;-52
2023/04/04 10:13:22;;;;;;;4.73;2.10;;;10.30;1.00;;;;;;5012044;28;20450;-52
2023/04/04 10:15:48;;;;;;;5.60;2.60;;;10.40;1.00;;;;;;5012195;28;20458;-53
2023/04/04 10:18:14;;;;;;;6.10;2.30;;;10.60;1.00;;;;;;5012083;28;20453;-54
2023/04/04 10:20:42;;;;;;;7.10;2.00;;;10.50;1.00;;;;;;5012419;28;20249;-54
2023/04/04 10:23:07;;;;;;;7.10;2.40;;;10.30;1.00;;;;;;5011943;28;20434;-54
2023/04/04 10:25:35;;;;;;;7.60;2.80;;;10.30;1.00;;;;;;5012066;28;20467;-54
2023/04/04 10:28:01;;;;;;;5.23;2.30;;;10.10;1.00;;;;;;5011785;28;20254;-53
2023/04/04 10:30:27;;;;;;;5.10;2.40;;;9.90;1.00;;;;;;5012256;28;20454;-53
2023/04/04 10:33:01;;;;;;;2.63;2.10;;;10.30;1.00;;;;;;5011752;28;20718;-55
2023/04/04 10:35:27;;;;;;;2.77;1.93;;;10.50;1.00;;;;;;5012024;28;20180;-54
2023/04/04 10:38:05;;;;;;;11.30;2.40;;;10.60;1.00;;;;;;5011177;28;20849;-55
2023/04/04 10:40:37;;;;;;;3.53;2.00;;;10.90;1.00;;;;;;5010730;28;20431;-55
2023/04/04 10:43:04;;;;;;;1.97;1.83;;;11.60;1.00;;;;;;5012050;28;20187;-57
2023/04/04 10:45:32;;;;;;;2.40;2.10;;;12.40;1.00;;;;;;5011442;28;20514;-55
2023/04/04 10:47:58;;;;;;;2.00;1.60;;;12.80;1.00;;;;;;5011838;28;20831;-56
2023/04/04 10:50:25;;;;;;;3.47;2.20;;;13.10;1.00;;;;;;5011531;28;20855;-57
2023/04/04 10:52:51;;;;;;;4.73;2.10;;;13.30;1.00;;;;;;5011926;28;20421;-55
2023/04/04 10:55:18;;;;;;;3.47;1.90;;;13.80;1.00;;;;;;5011640;28;20959;-55
2023/04/04 10:57:51;;;;;;;2.43;1.70;;;14.40;1.00;;;;;;5011732;28;20477;-55
2023/04/04 11:00:19;;;;;;;1.87;1.50;;;14.80;1.00;;;;;;5011791;28;20468;-56
2023/04/04 11:02:45;;;;;;;1.77;1.47;;;14.90;1.00;;;;;;5011759;28;20449;-59
2023/04/04 11:05:22;;;;;;;1.90;1.63;;;14.90;1.00;;;;;;5011751;28;20437;-59
2023/04/04 11:07:58;;;;;;;4.70;1.80;;;15.20;1.00;;;;;;5011586;28;20460;-57
2023/04/04 11:10:34;;;;;;;2.00;1.70;;;15.30;1.00;;;;;;5011495;28;20925;-55
2023/04/04 11:13:07;;;;;;;5.07;2.10;;;15.50;1.00;;;;;;5011495;28;20436;-56
2023/04/04 11:15:58;;;;;;;4.07;2.27;;;16.00;1.00;;;;;;5011647;28;20414;-54
2023/04/04 11:18:39;;;;;;;2.43;1.60;;;15.90;1.00;;;;;;5011455;28;20512;-54
2023/04/04 11:21:15;;;;;;;3.03;1.90;;;15.50;1.00;;;;;;5011895;28;20424;-58
2023/04/04 11:23:47;;;;;;;4.40;1.90;;;15.20;1.00;;;;;;5012454;28;20422;-55
2023/04/04 11:26:15;;;;;;;4.33;1.80;;;15.40;1.00;;;;;;5012586;28;20440;-56
2023/04/04 11:28:43;;;;;;;3.20;1.77;;;16.20;1.00;;;;;;5013441;28;20906;-55
2023/04/04 11:31:17;;;;;;;4.20;2.10;;;16.60;1.00;;;;;;5012495;28;20430;-56
2023/04/04 11:34:06;;;;;;;4.83;2.10;;;16.40;1.00;;;;;;5013306;28;20417;-56
2023/04/04 11:36:38;;;;;;;4.20;2.20;;;16.00;1.00;;;;;;5013166;28;20509;-56
2023/04/04 11:39:05;;;;;;;3.00;1.93;;;15.40;1.00;;;;;;5013552;28;20433;-54
2023/04/04 11:41:46;;;;;;;6.40;1.90;;;15.40;1.00;;;;;;5013447;28;20823;-55
2023/04/04 11:44:11;;;;;;;3.37;1.80;;;15.20;1.00;;;;;;5013457;28;20556;-55
2023/04/04 11:46:38;;;;;;;9.43;2.00;;;14.70;1.00;;;;;;5013279;28;20934;-55
2023/04/04 11:49:05;;;;;;;2.97;1.80;;;14.20;1.00;;;;;;5013741;28;20197;-55
2023/04/04 11:51:31;;;;;;;2.63;1.80;;;13.50;1.00;;;;;;5017124;28;20508;-55
2023/04/04 11:53:57;;;;;;;5.53;2.03;;;13.10;1.00;;;;;;5016674;28;20910;-55
2023/04/04 11:56:23;;;;;;;4.33;1.90;;;12.80;1.00;;;;;;5016850;28;20426;-55
2023/04/04 11:58:50;;;;;;;2.93;1.93;;;12.10;1.00;;;;;;5016774;28;20202;-55
2023/04/04 12:01:17;;;;;;;3.10;1.57;;;11.90;1.00;;;;;;5016846;28;20441;-55
2023/04/04 12:03:42;;;;;;;3.08;1.30;;;11.80;1.00;;;;;;5015938;28;20756;-55
2023/04/04 12:06:10;;;;;;;4.70;1.90;;;12.00;1.00;;;;;;5017011;28;20190;-55
2023/04/04 12:08:36;;;;;;;3.10;1.67;;;12.50;1.00;;;;;;5016596;28;20296;-54
2023/04/04 12:11:11;;;;;;;5.23;1.57;;;12.70;1.00;;;;;;5016345;28;20466;-54
2023/04/04 12:13:47;;;;;;;2.13;1.37;;;12.60;1.00;;;;;;5016877;28;20193;-55
2023/04/04 12:16:12;;;;;;;2.70;1.50;;;12.90;1.00;;;;;;5016825;28;20417;-55
2023/04/04 12:18:38;;;;;;;5.57;1.47;;;13.00;1.00;;;;;;5016561;28;20435;-55
2023/04/04 12:21:06;;;;;;;1.87;1.70;;;13.00;1.00;;;;;;5016233;28;20179;-55
2023/04/04 12:23:33;;;;;;;3.27;1.60;;;13.10;1.00;;;;;;5013866;28;20271;-54
2023/04/04 12:26:02;;;;;;;3.07;1.47;;;13.00;1.00;;;;;;5014421;28;20434;-55
2023/04/04 12:28:29;;;;;;;3.23;1.63;;;13.20;1.00;;;;;;5015252;28;20488;-53
2023/04/04 12:30:55;;;;;;;5.73;1.60;;;13.50;1.00;;;;;;5016148;28;20424;-54
2023/04/04 12:33:21;;;;;;;2.17;1.70;;;14.10;1.00;;;;;;5016437;28;20501;-55
2023/04/04 12:35:53;;;;;;;2.47;1.90;;;14.40;1.00;;;;;;5016140;28;20614;-55
2023/04/04 12:38:19;;;;;;;5.93;4.17;;;14.40;1.00;;;;;;5016097;28;20270;-55
2023/04/04 12:40:45;;;;;;;4.13;2.37;;;14.40;1.00;;;;;;5015943;28;20932;-55
2023/04/04 12:43:16;;;;;;;2.27;1.60;;;14.30;1.00;;;;;;5016345;28;20183;-53
2023/04/04 12:45:43;;;;;;;2.87;1.70;;;14.20;1.00;;;;;;5016422;28;20805;-56
2023/04/04 12:48:14;;;;;;;3.90;1.73;;;14.30;1.00;;;;;;5015805;28;20477;-55
2023/04/04 12:50:53;;;;;;;4.60;1.80;;;14.20;1.00;;;;;;5015739;28;20906;-56
2023/04/04 12:53:20;;;;;;;2.90;1.43;;;14.40;1.00;;;;;;5015907;28;20418;-57
2023/04/04 12:55:47;;;;;;;2.80;1.13;;;14.60;1.00;;;;;;5015540;28;20513;-55